createdAt,value
2022-10-11T00:01:54.409Z,15.90
2022-10-11T00:04:22.264Z,15.90
2022-10-11T00:06:50.135Z,15.90
2022-10-11T00:09:18.079Z,15.90
2022-10-11T00:11:45.892Z,15.80
2022-10-11T00:14:15.098Z,15.70
2022-10-11T00:16:44.510Z,15.60
2022-10-11T00:19:12.326Z,15.50
2022-10-11T00:21:40.311Z,15.30
2022-10-11T00:24:08.309Z,15.30
2022-10-11T00:26:36.098Z,15.30
2022-10-11T00:29:03.967Z,15.20
2022-10-11T00:31:35.637Z,15.00
2022-10-11T00:34:03.771Z,15.00
2022-10-11T00:36:31.958Z,14.90
2022-10-11T00:39:02.877Z,14.90
2022-10-11T00:41:30.787Z,14.90
2022-10-11T00:44:15.370Z,14.80
2022-10-11T00:46:45.731Z,14.80
2022-10-11T00:49:16.661Z,14.80
2022-10-11T00:51:46.422Z,14.80
2022-10-11T00:54:16.531Z,14.80
2022-10-11T00:56:45.339Z,14.70
2022-10-11T00:59:17.809Z,14.60
2022-10-11T01:01:47.140Z,14.50
2022-10-11T01:04:14.972Z,14.30
2022-10-11T01:06:43.015Z,14.30
2022-10-11T01:09:11.224Z,14.20
2022-10-11T01:11:40.283Z,14.00
2022-10-11T01:14:16.260Z,13.90
2022-10-11T01:16:48.484Z,13.90
2022-10-11T01:19:24.210Z,13.80
2022-10-11T01:21:54.175Z,13.80
2022-10-11T01:24:44.822Z,13.70
2022-10-11T01:27:30.282Z,13.60
2022-10-11T01:30:03.766Z,13.50
2022-10-11T01:32:35.721Z,13.40
2022-10-11T01:35:07.459Z,13.20
2022-10-11T01:37:36.361Z,13.10
2022-10-11T01:40:07.029Z,13.00
2022-10-11T01:42:35.628Z,12.80
2022-10-11T01:45:03.729Z,12.70
2022-10-11T01:47:32.904Z,12.60
2022-10-11T01:50:01.424Z,12.50
2022-10-11T01:52:31.288Z,12.40
2022-10-11T01:55:17.800Z,12.30
2022-10-11T01:57:48.768Z,12.20
2022-10-11T02:00:19.270Z,12.20
2022-10-11T02:03:06.096Z,12.10
2022-10-11T02:05:38.511Z,12.10
2022-10-11T02:08:08.920Z,12.10
2022-10-11T02:10:39.301Z,12.00
2022-10-11T02:13:09.965Z,12.00
2022-10-11T02:15:39.400Z,12.00
2022-10-11T02:18:12.759Z,11.90
2022-10-11T02:20:42.282Z,11.80
2022-10-11T02:23:11.730Z,11.70
2022-10-11T02:25:40.792Z,11.60
2022-10-11T02:28:12.612Z,11.50
2022-10-11T02:30:42.525Z,11.50
2022-10-11T02:33:18.274Z,11.50
2022-10-11T02:35:48.246Z,11.40
2022-10-11T02:38:19.201Z,11.40
2022-10-11T02:40:48.524Z,11.40
2022-10-11T02:43:19.391Z,11.40
2022-10-11T02:45:49.422Z,11.40
2022-10-11T02:48:19.232Z,11.30
2022-10-11T02:50:47.273Z,11.20
2022-10-11T02:53:15.290Z,11.00
2022-10-11T02:55:43.298Z,10.90
2022-10-11T02:58:11.256Z,10.90
2022-10-11T03:00:43.970Z,10.90
2022-10-11T03:03:11.898Z,10.90
2022-10-11T03:05:41.618Z,10.90
2022-10-11T03:08:10.008Z,10.80
2022-10-11T03:10:38.045Z,10.70
2022-10-11T03:13:05.942Z,10.70
2022-10-11T03:15:36.150Z,10.70
2022-10-11T03:18:04.242Z,10.60
2022-10-11T03:20:31.985Z,10.60
2022-10-11T03:23:01.335Z,10.60
2022-10-11T03:25:29.520Z,10.60
2022-10-11T03:27:58.608Z,10.50
2022-10-11T03:30:26.559Z,10.40
2022-10-11T03:32:54.463Z,10.40
2022-10-11T03:35:25.311Z,10.40
2022-10-11T03:37:55.816Z,10.40
2022-10-11T03:40:25.107Z,10.40
2022-10-11T03:42:59.053Z,10.50
2022-10-11T03:45:29.766Z,10.50
2022-10-11T03:47:57.743Z,10.50
2022-10-11T03:50:25.876Z,10.50
2022-10-11T03:52:53.706Z,10.30
2022-10-11T03:55:21.627Z,10.30
2022-10-11T03:57:50.902Z,10.30
2022-10-11T04:00:20.856Z,10.10
2022-10-11T04:02:48.892Z,10.10
2022-10-11T04:05:19.775Z,10.00
2022-10-11T04:07:47.781Z,10.00
2022-10-11T04:10:15.732Z,10.00
2022-10-11T04:12:43.943Z,10.00
2022-10-11T04:15:13.690Z,10.00
2022-10-11T04:17:41.659Z,10.00
2022-10-11T04:20:10.319Z,10.00
2022-10-11T04:22:38.500Z,9.90
2022-10-11T04:25:09.973Z,9.90
2022-10-11T04:27:37.872Z,9.80
2022-10-11T04:30:07.450Z,9.80
2022-10-11T04:32:36.803Z,9.70
2022-10-11T04:35:05.009Z,9.70
2022-10-11T04:37:33.298Z,9.70
2022-10-11T04:40:01.195Z,9.70
2022-10-11T04:42:29.056Z,9.70
2022-10-11T04:45:03.055Z,9.70
2022-10-11T04:47:33.581Z,9.70
2022-10-11T04:50:02.928Z,9.70
2022-10-11T04:52:33.963Z,9.80
2022-10-11T04:55:01.944Z,9.90
2022-10-11T04:57:29.862Z,9.90
2022-10-11T04:59:57.861Z,10.00
2022-10-11T05:02:25.700Z,10.00
2022-10-11T05:04:53.676Z,10.10
2022-10-11T05:07:26.050Z,10.10
2022-10-11T05:09:56.396Z,10.20
2022-10-11T05:12:24.293Z,10.30
2022-10-11T05:14:51.996Z,10.30
2022-10-11T05:17:19.798Z,10.40
2022-10-11T05:19:49.579Z,10.40
2022-10-11T05:22:17.317Z,10.40
2022-10-11T05:24:49.571Z,10.50
2022-10-11T05:27:17.428Z,10.60
2022-10-11T05:29:45.756Z,10.60
2022-10-11T05:32:13.558Z,10.70
2022-10-11T05:34:41.328Z,10.80
2022-10-11T05:37:09.153Z,10.90
2022-10-11T05:39:37.143Z,11.00
2022-10-11T05:42:09.739Z,11.10
2022-10-11T05:44:39.577Z,11.20
2022-10-11T05:47:07.482Z,11.30
2022-10-11T05:49:35.212Z,11.30
2022-10-11T05:52:06.663Z,11.30
2022-10-11T05:54:36.085Z,11.30
2022-10-11T05:57:04.015Z,11.30
2022-10-11T05:59:33.319Z,11.40
2022-10-11T06:02:01.212Z,11.50
2022-10-11T06:04:29.054Z,11.50
2022-10-11T06:06:56.847Z,11.60
2022-10-11T06:09:27.270Z,11.60
2022-10-11T06:11:55.087Z,11.70
2022-10-11T06:14:22.847Z,11.60
2022-10-11T06:16:51.983Z,11.60
2022-10-11T06:19:19.805Z,11.60
2022-10-11T06:21:50.576Z,11.70
2022-10-11T06:24:18.574Z,11.70
2022-10-11T06:26:46.467Z,11.80
2022-10-11T06:29:14.295Z,11.90
2022-10-11T06:31:42.376Z,12.00
2022-10-11T06:34:12.905Z,12.20
2022-10-11T06:36:42.681Z,12.20
2022-10-11T06:39:11.664Z,12.40
2022-10-11T06:41:39.586Z,12.40
2022-10-11T06:44:11.928Z,12.50
2022-10-11T06:46:41.861Z,12.60
2022-10-11T06:49:11.283Z,12.70
2022-10-11T06:51:39.108Z,12.90
2022-10-11T06:54:06.973Z,13.00
2022-10-11T06:56:34.804Z,13.10
2022-10-11T06:59:03.577Z,13.30
2022-10-11T07:01:34.159Z,13.40
2022-10-11T07:04:03.136Z,13.60
2022-10-11T07:06:32.777Z,13.70
2022-10-11T07:09:03.075Z,13.70
2022-10-11T07:11:30.984Z,13.80
2022-10-11T07:13:59.728Z,13.90
2022-10-11T07:16:28.178Z,14.00
2022-10-11T07:19:00.404Z,14.00
2022-10-11T07:21:28.796Z,14.00
2022-10-11T07:23:58.001Z,14.00
2022-10-11T07:26:25.915Z,14.00
2022-10-11T07:28:53.767Z,14.10
2022-10-11T07:31:22.622Z,14.10
2022-10-11T07:33:50.815Z,14.10
2022-10-11T07:36:18.651Z,14.20
2022-10-11T07:38:47.367Z,14.20
2022-10-11T07:41:16.858Z,14.30
2022-10-11T07:43:46.987Z,14.40
2022-10-11T07:46:15.111Z,14.50
2022-10-11T07:48:43.004Z,14.70
2022-10-11T07:51:12.735Z,14.70
2022-10-11T07:53:41.491Z,14.80
2022-10-11T07:56:10.042Z,14.80
2022-10-11T07:58:39.359Z,14.70
2022-10-11T08:01:07.401Z,14.60
2022-10-11T08:03:35.613Z,14.50
2022-10-11T08:06:04.699Z,14.60
2022-10-11T08:08:32.865Z,14.60
2022-10-11T08:11:00.836Z,14.80
2022-10-11T08:13:28.845Z,14.80
2022-10-11T08:15:58.199Z,14.90
2022-10-11T08:18:26.352Z,15.00
2022-10-11T08:20:54.255Z,15.00
2022-10-11T08:23:22.022Z,15.10
2022-10-11T08:25:49.834Z,15.00
2022-10-11T08:28:18.092Z,15.00
2022-10-11T08:30:50.837Z,15.10
2022-10-11T08:33:21.005Z,15.20
2022-10-11T08:35:49.192Z,15.30
2022-10-11T08:38:19.108Z,15.40
2022-10-11T08:40:47.704Z,15.50
2022-10-11T08:43:19.553Z,15.60
2022-10-11T08:45:50.245Z,15.60
2022-10-11T08:48:19.118Z,15.60
2022-10-11T08:50:50.648Z,15.60
2022-10-11T08:53:23.444Z,15.60
2022-10-11T08:55:52.182Z,15.70
2022-10-11T08:58:21.641Z,15.60
2022-10-11T09:00:51.321Z,15.60
2022-10-11T09:03:29.423Z,15.70
2022-10-11T09:06:07.874Z,15.70
2022-10-11T09:08:42.269Z,15.60
2022-10-11T09:11:15.264Z,15.70
2022-10-11T09:13:54.420Z,15.70
2022-10-11T09:16:26.639Z,15.80
2022-10-11T09:19:01.311Z,15.80
2022-10-11T09:21:35.937Z,15.70
2022-10-11T09:24:19.766Z,15.70
2022-10-11T09:26:51.099Z,15.70
2022-10-11T09:29:22.707Z,15.90
2022-10-11T09:31:53.183Z,15.90
2022-10-11T09:34:23.107Z,16.00
2022-10-11T09:36:55.281Z,16.20
2022-10-11T09:39:28.403Z,16.40
2022-10-11T09:41:58.343Z,16.60
2022-10-11T09:44:27.949Z,16.80
2022-10-11T09:46:56.915Z,17.00
2022-10-11T09:49:30.335Z,16.90
2022-10-11T09:52:02.033Z,16.90
2022-10-11T09:54:38.628Z,16.80
2022-10-11T09:57:06.983Z,16.70
2022-10-11T09:59:35.376Z,16.70
2022-10-11T10:02:40.936Z,16.80
2022-10-11T10:05:19.474Z,17.00
2022-10-11T10:08:04.779Z,17.30
2022-10-11T10:10:38.577Z,17.50
2022-10-11T10:13:07.334Z,17.90
2022-10-11T10:15:36.133Z,18.00
2022-10-11T10:18:05.995Z,18.20
2022-10-11T10:20:35.101Z,18.30
2022-10-11T10:23:09.460Z,18.50
2022-10-11T10:25:43.336Z,18.60
2022-10-11T10:28:18.947Z,18.70
2022-10-11T10:30:54.445Z,18.60
2022-10-11T10:33:23.231Z,18.70
2022-10-11T10:35:53.671Z,18.60
2022-10-11T10:38:30.169Z,18.50
2022-10-11T10:41:03.705Z,18.30
2022-10-11T10:43:40.967Z,18.10
2022-10-11T10:46:21.030Z,18.10
2022-10-11T10:51:44.082Z,18.40
2022-10-11T10:54:26.220Z,18.50
2022-10-11T10:56:56.875Z,18.60
2022-10-11T10:59:40.224Z,18.60
2022-10-11T11:02:35.354Z,18.60
2022-10-11T11:05:02.998Z,18.70
2022-10-11T11:07:33.672Z,18.70
2022-10-11T11:10:04.574Z,18.70
2022-10-11T11:12:40.518Z,18.70
2022-10-11T11:15:12.359Z,18.70
2022-10-11T11:17:48.250Z,18.80
2022-10-11T11:20:37.185Z,18.90
2022-10-11T11:23:10.177Z,19.00
2022-10-11T11:25:45.034Z,19.10
2022-10-11T11:28:19.906Z,19.20
2022-10-11T11:30:53.396Z,19.10
2022-10-11T11:33:26.781Z,19.30
2022-10-11T11:35:55.438Z,19.40
2022-10-11T11:38:29.438Z,19.60
2022-10-11T11:41:02.183Z,19.60
2022-10-11T11:43:34.000Z,19.60
2022-10-11T11:46:04.654Z,19.60
2022-10-11T11:48:32.438Z,19.70
2022-10-11T11:51:05.648Z,19.80
2022-10-11T11:53:44.288Z,19.80
2022-10-11T11:56:18.303Z,19.80
2022-10-11T11:58:50.989Z,19.90
2022-10-11T12:01:26.509Z,19.80
2022-10-11T12:03:58.728Z,19.90
2022-10-11T12:06:29.096Z,20.10
2022-10-11T12:09:01.895Z,19.90
2022-10-11T12:11:39.560Z,19.80
2022-10-11T12:14:18.921Z,20.00
2022-10-11T12:17:01.594Z,20.10
2022-10-11T12:19:29.449Z,20.20
2022-10-11T12:22:12.170Z,20.20
2022-10-11T12:24:53.414Z,20.30
2022-10-11T12:27:38.140Z,20.40
2022-10-11T12:30:06.646Z,20.40
2022-10-11T12:32:55.100Z,20.30
2022-10-11T12:35:42.452Z,20.40
2022-10-11T12:38:18.631Z,20.60
2022-10-11T12:40:47.206Z,20.70
2022-10-11T12:43:27.485Z,20.60
2022-10-11T12:45:55.264Z,20.50
2022-10-11T12:48:45.337Z,20.50
2022-10-11T12:51:36.518Z,20.40
2022-10-11T12:54:28.280Z,20.40
2022-10-11T12:57:11.034Z,20.40
2022-10-11T12:59:44.201Z,20.40
2022-10-11T13:02:21.765Z,20.40
2022-10-11T13:04:49.916Z,20.50
2022-10-11T13:07:23.462Z,20.50
2022-10-11T13:09:53.763Z,20.50
2022-10-11T13:12:23.228Z,20.50
2022-10-11T13:14:59.343Z,20.60
2022-10-11T13:17:37.406Z,20.70
2022-10-11T13:20:08.335Z,20.70
2022-10-11T13:22:36.693Z,20.60
2022-10-11T13:25:05.253Z,20.60
2022-10-11T13:27:33.453Z,20.90
2022-10-11T13:30:09.124Z,21.10
2022-10-11T13:32:37.480Z,21.20
2022-10-11T13:35:07.011Z,21.20
2022-10-11T13:37:41.536Z,21.10
2022-10-11T13:40:16.971Z,20.90
2022-10-11T13:42:45.334Z,20.90
2022-10-11T13:45:16.321Z,20.80
2022-10-11T13:47:44.497Z,20.70
2022-10-11T13:50:23.534Z,20.80
2022-10-11T13:52:54.111Z,20.80
2022-10-11T13:55:26.303Z,20.90
2022-10-11T13:57:54.324Z,20.80
2022-10-11T14:00:25.375Z,20.80
2022-10-11T14:02:55.996Z,20.80
2022-10-11T14:05:28.610Z,20.80
2022-10-11T14:07:56.930Z,20.70
2022-10-11T14:10:25.886Z,20.70
2022-10-11T14:13:22.372Z,20.60
2022-10-11T14:16:00.910Z,20.60
2022-10-11T14:18:34.614Z,20.60
2022-10-11T14:21:17.562Z,20.60
2022-10-11T14:23:45.687Z,20.60
2022-10-11T14:26:18.377Z,20.70
2022-10-11T14:28:51.783Z,20.80
2022-10-11T14:31:20.989Z,20.80
2022-10-11T14:33:48.981Z,20.70
2022-10-11T14:36:16.853Z,20.70
2022-10-11T14:38:44.788Z,20.60
2022-10-11T14:41:14.219Z,20.60
2022-10-11T14:43:42.104Z,20.60
2022-10-11T14:46:11.262Z,20.60
2022-10-11T14:48:55.110Z,20.50
2022-10-11T14:51:25.619Z,20.50
2022-10-11T14:53:53.462Z,20.60
2022-10-11T14:56:23.565Z,20.60
2022-10-11T14:58:52.355Z,20.50
2022-10-11T15:01:21.441Z,20.30
2022-10-11T15:03:50.627Z,20.20
2022-10-11T15:06:19.648Z,20.20
2022-10-11T15:08:47.700Z,20.20
2022-10-11T15:11:16.780Z,20.20
2022-10-11T15:13:44.700Z,20.20
2022-10-11T15:16:13.043Z,20.10
2022-10-11T15:18:40.897Z,20.10
2022-10-11T15:21:14.184Z,20.00
2022-10-11T15:23:41.985Z,20.00
2022-10-11T15:26:11.522Z,19.90
2022-10-11T15:28:39.446Z,19.80
2022-10-11T15:31:08.866Z,19.70
2022-10-11T15:33:37.150Z,19.70
2022-10-11T15:36:05.639Z,19.60
2022-10-11T15:38:35.070Z,19.50
2022-10-11T15:41:02.995Z,19.50
2022-10-11T15:43:30.912Z,19.30
2022-10-11T15:45:58.933Z,19.30
2022-10-11T15:48:27.723Z,19.20
2022-10-11T15:50:56.171Z,19.20
2022-10-11T15:53:24.806Z,19.20
2022-10-11T15:55:55.061Z,19.10
2022-10-11T15:58:24.091Z,19.10
2022-10-11T16:00:54.093Z,19.00
2022-10-11T16:03:22.927Z,18.90
2022-10-11T16:05:51.465Z,18.80
2022-10-11T16:08:19.278Z,18.80
2022-10-11T16:10:47.514Z,18.70
2022-10-11T16:13:16.904Z,18.60
2022-10-11T16:15:48.525Z,18.50
2022-10-11T16:18:17.966Z,18.40
2022-10-11T16:20:46.616Z,18.40
2022-10-11T16:23:14.932Z,18.30
2022-10-11T16:25:42.827Z,18.20
2022-10-11T16:28:11.202Z,18.10
2022-10-11T16:30:43.061Z,17.90
2022-10-11T16:33:13.866Z,17.80
2022-10-11T16:35:42.498Z,17.60
2022-10-11T16:38:10.586Z,17.50
2022-10-11T16:40:38.513Z,17.30
2022-10-11T16:43:07.870Z,17.20
2022-10-11T16:45:36.598Z,17.00
2022-10-11T16:48:06.396Z,16.90
2022-10-11T16:50:39.059Z,16.70
2022-10-11T16:53:07.871Z,16.60
2022-10-11T16:55:35.758Z,16.50
2022-10-11T16:58:03.724Z,16.30
2022-10-11T17:00:31.719Z,16.20
2022-10-11T17:02:59.853Z,16.10
2022-10-11T17:05:29.147Z,16.00
2022-10-11T17:07:56.995Z,15.90
2022-10-11T17:10:39.294Z,15.70
2022-10-11T17:13:07.581Z,15.60
2022-10-11T17:15:38.700Z,15.50
2022-10-11T17:18:06.991Z,15.40
2022-10-11T17:20:36.176Z,15.30
2022-10-11T17:23:04.019Z,15.20
2022-10-11T17:25:31.952Z,15.00
2022-10-11T17:27:59.795Z,14.80
2022-10-11T17:30:27.733Z,14.70
2022-10-11T17:32:55.948Z,14.70
2022-10-11T17:35:26.258Z,14.50
2022-10-11T17:37:55.438Z,14.40
2022-10-11T17:40:26.233Z,14.40
2022-10-11T17:42:54.070Z,14.30
2022-10-11T17:45:21.945Z,14.20
2022-10-11T17:47:49.721Z,14.10
2022-10-11T17:50:17.821Z,14.00
2022-10-11T17:52:45.829Z,13.90
2022-10-11T17:55:15.107Z,13.80
2022-10-11T17:57:42.935Z,13.70
2022-10-11T18:00:11.480Z,13.50
2022-10-11T18:02:40.238Z,13.40
2022-10-11T18:05:08.744Z,13.30
2022-10-11T18:07:36.597Z,13.20
2022-10-11T18:10:04.545Z,13.10
2022-10-11T18:12:34.105Z,13.00
2022-10-11T18:15:02.096Z,12.80
2022-10-11T18:17:30.024Z,12.80
2022-10-11T18:19:57.907Z,12.70
2022-10-11T18:22:27.329Z,12.60
2022-10-11T18:24:55.107Z,12.50
2022-10-11T18:27:22.961Z,12.50
2022-10-11T18:29:52.153Z,12.40
2022-10-11T18:32:20.950Z,12.30
2022-10-11T18:34:48.797Z,12.30
2022-10-11T18:37:16.551Z,12.20
2022-10-11T18:39:54.464Z,12.10
2022-10-11T18:42:22.425Z,12.10
2022-10-11T18:44:50.209Z,12.10
2022-10-11T18:47:19.518Z,12.00
2022-10-11T18:49:47.377Z,11.90
2022-10-11T18:52:15.270Z,11.80
2022-10-11T18:54:43.724Z,11.70
2022-10-11T18:57:12.081Z,11.70
2022-10-11T18:59:39.860Z,11.60
2022-10-11T19:02:07.737Z,11.60
2022-10-11T19:04:37.939Z,11.60
2022-10-11T19:07:06.821Z,11.60
2022-10-11T19:09:34.871Z,11.60
2022-10-11T19:12:07.164Z,11.50
2022-10-11T19:14:35.047Z,11.50
2022-10-11T19:17:02.832Z,11.50
2022-10-11T19:19:30.850Z,11.40
2022-10-11T19:22:00.685Z,11.40
2022-10-11T19:24:29.480Z,11.30
2022-10-11T19:27:02.335Z,11.30
2022-10-11T19:29:31.395Z,11.20
2022-10-11T19:31:59.951Z,11.10
2022-10-11T19:34:36.832Z,11.10
2022-10-11T19:37:06.362Z,11.10
2022-10-11T19:39:34.288Z,11.00
2022-10-11T19:42:02.604Z,10.90
2022-10-11T19:44:32.462Z,10.90
2022-10-11T19:47:05.407Z,10.80
2022-10-11T19:49:33.346Z,10.80
2022-10-11T19:52:01.781Z,10.80
2022-10-11T19:54:31.957Z,10.70
2022-10-11T19:56:59.806Z,10.60
2022-10-11T19:59:28.087Z,10.60
2022-10-11T20:01:55.937Z,10.50
2022-10-11T20:07:11.929Z,10.30
2022-10-11T20:09:41.048Z,10.20
2022-10-11T20:12:09.172Z,10.10
2022-10-11T20:14:36.970Z,10.10
2022-10-11T20:17:04.754Z,10.10
2022-10-11T20:19:33.060Z,10.10
2022-10-11T20:22:01.027Z,10.10
2022-10-11T20:24:32.607Z,10.10
2022-10-11T20:27:02.723Z,9.90
2022-10-11T20:29:30.481Z,9.90
2022-10-11T20:31:58.929Z,9.90
2022-10-11T20:34:27.584Z,9.80
2022-10-11T20:36:55.395Z,9.80
2022-10-11T20:39:36.521Z,9.80
2022-10-11T20:42:06.155Z,9.80
2022-10-11T20:44:34.001Z,9.70
2022-10-11T20:47:04.183Z,9.70
2022-10-11T20:49:32.241Z,9.70
2022-10-11T20:52:00.160Z,9.60
2022-10-11T20:54:29.771Z,9.60
2022-10-11T20:56:58.020Z,9.50
2022-10-11T20:59:30.279Z,9.60
2022-10-11T21:01:58.477Z,9.60
2022-10-11T21:04:26.325Z,9.60
2022-10-11T21:06:54.120Z,9.50
2022-10-11T21:09:22.068Z,9.50
2022-10-11T21:11:49.809Z,9.50
2022-10-11T21:14:22.142Z,9.50
2022-10-11T21:16:51.423Z,9.40
2022-10-11T21:19:19.268Z,9.40
2022-10-11T21:21:52.531Z,9.40
2022-10-11T21:24:21.476Z,9.40
2022-10-11T21:26:49.250Z,9.40
2022-10-11T21:29:17.363Z,9.30
2022-10-11T21:31:45.235Z,9.30
2022-10-11T21:34:16.987Z,9.30
2022-10-11T21:36:44.872Z,9.30
2022-10-11T21:39:12.663Z,9.20
2022-10-11T21:41:42.098Z,9.20
2022-10-11T21:44:09.982Z,9.20
2022-10-11T21:47:04.988Z,9.20
2022-10-11T21:49:27.060Z,9.20
2022-10-11T21:51:55.054Z,9.20
2022-10-11T21:54:23.204Z,9.20
2022-10-11T21:56:51.086Z,9.20
2022-10-11T21:59:20.870Z,9.10
2022-10-11T22:01:48.709Z,9.00
2022-10-11T22:04:17.618Z,9.00
2022-10-11T22:06:46.849Z,8.90
2022-10-11T22:09:14.835Z,8.90
2022-10-11T22:11:42.574Z,8.80
2022-10-11T22:14:10.492Z,8.80
2022-10-11T22:16:38.343Z,8.80
2022-10-11T22:19:06.145Z,8.80
2022-10-11T22:21:38.291Z,8.90
2022-10-11T22:24:10.760Z,8.80
2022-10-11T22:26:38.566Z,8.80
2022-10-11T22:29:06.384Z,8.80
2022-10-11T22:31:35.691Z,8.80
2022-10-11T22:34:03.673Z,8.70
2022-10-11T22:36:31.667Z,8.70
2022-10-11T22:38:59.618Z,8.70
2022-10-11T22:41:31.954Z,8.60
2022-10-11T22:43:59.780Z,8.60
2022-10-11T22:46:27.833Z,8.50
2022-10-11T22:48:55.623Z,8.50
2022-10-11T22:51:25.890Z,8.50
2022-10-11T22:53:53.732Z,8.40
2022-10-11T22:56:21.538Z,8.40
2022-10-11T22:58:50.802Z,8.40
2022-10-11T23:01:20.763Z,8.30
2022-10-11T23:03:49.608Z,8.30
2022-10-11T23:06:17.893Z,8.20
2022-10-11T23:08:45.839Z,8.20
2022-10-11T23:11:13.716Z,8.20
2022-10-11T23:13:41.653Z,8.20
2022-10-11T23:16:11.974Z,8.10
2022-10-11T23:18:40.051Z,8.00
2022-10-11T23:21:08.252Z,8.00
2022-10-11T23:23:36.612Z,8.10
2022-10-11T23:26:05.532Z,8.00
2022-10-11T23:28:33.559Z,8.00
2022-10-11T23:31:01.618Z,8.00
2022-10-11T23:33:30.886Z,7.90
2022-10-11T23:36:01.614Z,7.90
2022-10-11T23:38:29.622Z,8.00
2022-10-11T23:40:57.446Z,8.00
2022-10-11T23:43:25.438Z,7.90
2022-10-11T23:45:55.443Z,7.90
2022-10-11T23:48:23.243Z,8.00
2022-10-11T23:50:52.389Z,7.90
2022-10-11T23:53:20.433Z,7.90
2022-10-11T23:55:48.283Z,7.90
2022-10-11T23:58:16.069Z,7.90
